Terminal Aerodrome Forecast
Issued by NWS

Home | Current Version | Previous Version | Text Only | Print | Product List | Glossary On
Versions: 1 2 3 4 5 6 7 8 9 10 11 12 13 14 15 16 17
000
FTUS41 KBOX 231729
TAFBAF
TAF
KBAF 231729Z 2318/2418 31010G20KT P6SM SKC
     FM240600 24005KT P6SM OVC100
     FM241500 19012G20KT P6SM VCSH OVC050=

USA.gov is the U.S. government's official web portal to all federal, state and local government web resources and services.